Simmons Army Air Field Fort Bragg US
ICAO: KFBG
IATA: FBG
Category: Medium
Scheduled Services: No

Elevation: 244 ft
TransAlt. 18000 ft.

Airport Communications:
FAYETTEVILLE APP/DEP:133
FLT ADVSY:125.9
ATIS:139.25
GND/CLNC DEL:121.9
RANGE RDO:46.75
BASE OPS:142.35
PMSV METRO:141.25
TWR:125.9

KFBG Zoom In..

If you have problems with the map follow the link
https://www.worldairports.se/pages/airport.php?
ICAO=KFBG

Runways:

(A) RW 09 length 5011 ft width 110 ft
---- / hdg 93

(B) RW 27 length 5011 ft width 110 ft
---- / hdg 273

Location; KFBG
Day. 26 / Time. 23.56 Zulu
* Altimeter: 29.96
* Temperature: 07° c. 44.6°f.
* Wind from: 250° Speed 03 kn.
Dewpoint: 01° c.
Visibility: 10 Statute Miles.
Clouds: Clear (automated report).

KFBG 262356Z AUTO 25003KT 10SM CLR 07/01 A2996 RMK AO2 SLP150 T00710007 10133 20067 52012 $


Wind From 250°
Speed 03 kn.

 
 
jpsmedia worldairports.se 2020   terms of use